createdAt,value
2023-02-18T00:02:28.794Z,12.74
2023-02-18T00:06:34.488Z,12.76
2023-02-18T00:10:36.030Z,12.67
2023-02-18T00:14:38.859Z,12.68
2023-02-18T00:18:40.334Z,12.60
2023-02-18T00:22:41.952Z,12.57
2023-02-18T00:26:44.565Z,12.53
2023-02-18T00:30:46.214Z,12.52
2023-02-18T00:34:47.962Z,12.48
2023-02-18T00:38:53.197Z,12.45
2023-02-18T00:42:54.740Z,12.42
2023-02-18T00:46:56.296Z,12.38
2023-02-18T00:50:57.920Z,12.29
2023-02-18T00:54:59.527Z,12.32
2023-02-18T00:59:01.230Z,12.31
2023-02-18T01:03:02.819Z,12.35
2023-02-18T01:07:04.423Z,12.35
2023-02-18T01:11:07.224Z,12.38
2023-02-18T01:15:09.389Z,12.34
2023-02-18T01:19:10.936Z,12.33
2023-02-18T01:23:14.490Z,12.32
2023-02-18T01:27:18.892Z,12.36
2023-02-18T01:31:20.599Z,12.40
2023-02-18T01:35:22.519Z,12.39
2023-02-18T01:39:24.352Z,12.35
2023-02-18T01:43:25.927Z,12.34
2023-02-18T01:47:27.510Z,12.37
2023-02-18T01:51:34.946Z,12.32
2023-02-18T01:55:39.325Z,12.30
2023-02-18T01:59:45.840Z,12.27
2023-02-18T02:03:47.562Z,12.28
2023-02-18T02:07:53.618Z,12.27
2023-02-18T02:12:19.655Z,12.19
2023-02-18T02:16:37.840Z,12.18
2023-02-18T02:21:01.598Z,12.17
2023-02-18T02:25:05.995Z,12.15
2023-02-18T02:29:50.139Z,12.14
2023-02-18T02:34:35.510Z,12.13
2023-02-18T02:38:52.305Z,12.14
2023-02-18T02:43:17.820Z,12.09
2023-02-18T02:47:48.607Z,12.08
2023-02-18T02:52:05.707Z,12.07
2023-02-18T02:56:14.036Z,12.00
2023-02-18T03:00:18.457Z,12.02
2023-02-18T03:05:00.359Z,12.07
2023-02-18T03:09:29.029Z,12.00
2023-02-18T03:14:03.668Z,12.05
2023-02-18T03:18:38.575Z,12.03
2023-02-18T03:22:46.674Z,12.05
2023-02-18T03:26:52.642Z,12.05
2023-02-18T03:31:07.224Z,12.10
2023-02-18T03:35:14.207Z,12.15
2023-02-18T03:39:18.066Z,12.17
2023-02-18T03:43:19.801Z,12.19
2023-02-18T03:47:21.534Z,12.20
2023-02-18T03:51:23.597Z,12.18
2023-02-18T03:55:25.513Z,12.23
2023-02-18T03:59:27.136Z,12.24
2023-02-18T04:03:28.831Z,12.25
2023-02-18T04:07:30.426Z,12.27
2023-02-18T04:11:31.994Z,12.30
2023-02-18T04:15:34.676Z,12.33
2023-02-18T04:19:36.337Z,12.30
2023-02-18T04:23:38.038Z,12.27
2023-02-18T04:27:39.624Z,12.23
2023-02-18T04:31:41.775Z,12.21
2023-02-18T04:35:43.862Z,12.23
2023-02-18T04:39:45.449Z,12.18
2023-02-18T04:43:47.021Z,12.19
2023-02-18T04:47:48.592Z,12.19
2023-02-18T04:51:50.158Z,12.18
2023-02-18T04:55:53.007Z,12.20
2023-02-18T04:59:54.669Z,12.18
2023-02-18T05:03:56.283Z,12.21
2023-02-18T05:07:57.892Z,12.23
2023-02-18T05:11:59.504Z,12.18
2023-02-18T05:16:01.513Z,12.20
2023-02-18T05:20:03.767Z,12.16
2023-02-18T05:24:05.595Z,12.18
2023-02-18T05:28:07.244Z,12.19
2023-02-18T05:32:08.902Z,12.17
2023-02-18T05:36:10.732Z,12.19
2023-02-18T05:40:12.589Z,12.20
2023-02-18T05:44:32.617Z,12.12
2023-02-18T05:48:34.370Z,12.12
2023-02-18T05:52:35.988Z,12.08
2023-02-18T05:56:37.601Z,12.09
2023-02-18T06:00:39.163Z,12.11
2023-02-18T06:04:40.821Z,12.05
2023-02-18T06:08:42.446Z,12.09
2023-02-18T06:12:44.590Z,12.14
2023-02-18T06:16:46.165Z,12.11
2023-02-18T06:20:49.258Z,12.12
2023-02-18T06:24:50.886Z,12.18
2023-02-18T06:28:52.663Z,12.15
2023-02-18T06:32:54.554Z,12.20
2023-02-18T06:36:56.174Z,12.21
2023-02-18T06:40:57.744Z,12.19
2023-02-18T06:44:59.338Z,12.28
2023-02-18T06:49:00.902Z,12.25
2023-02-18T06:53:02.611Z,12.27
2023-02-18T06:57:04.325Z,12.32
2023-02-18T07:01:06.372Z,12.25
2023-02-18T07:05:08.469Z,12.28
2023-02-18T07:09:10.091Z,12.24
2023-02-18T07:13:11.688Z,12.28
2023-02-18T07:17:13.392Z,12.30
2023-02-18T07:21:15.045Z,12.28
2023-02-18T07:25:16.864Z,12.24
2023-02-18T07:29:18.659Z,12.29
2023-02-18T07:33:20.269Z,12.27
2023-02-18T07:37:21.835Z,12.28
2023-02-18T07:41:23.451Z,12.27
2023-02-18T07:45:25.701Z,12.32
2023-02-18T07:49:27.790Z,12.29
2023-02-18T07:53:29.508Z,12.36
2023-02-18T07:57:31.444Z,12.35
2023-02-18T08:01:33.256Z,12.37
2023-02-18T08:05:35.056Z,12.35
2023-02-18T08:09:36.665Z,12.41
2023-02-18T08:13:38.264Z,12.47
2023-02-18T08:17:39.893Z,12.42
2023-02-18T08:21:41.480Z,12.43
2023-02-18T08:25:50.098Z,12.53
2023-02-18T08:29:52.026Z,12.62
2023-02-18T08:33:55.667Z,12.64
2023-02-18T08:37:57.848Z,12.63
2023-02-18T08:42:00.371Z,12.61
2023-02-18T08:46:02.427Z,12.74
2023-02-18T08:50:06.715Z,12.75
2023-02-18T08:54:08.475Z,12.77
2023-02-18T08:58:10.618Z,12.88
2023-02-18T09:02:14.952Z,12.85
2023-02-18T09:06:16.724Z,12.85
2023-02-18T09:10:18.465Z,12.84
2023-02-18T09:14:20.040Z,12.77
2023-02-18T09:18:21.659Z,12.76
2023-02-18T09:22:23.374Z,12.70
2023-02-18T09:26:26.308Z,12.84
2023-02-18T09:30:27.952Z,12.94
2023-02-18T09:34:29.647Z,12.96
2023-02-18T09:38:31.670Z,13.08
2023-02-18T09:42:35.332Z,13.11
2023-02-18T09:46:43.404Z,13.11
2023-02-18T09:50:51.594Z,13.28
2023-02-18T09:54:54.358Z,13.19
2023-02-18T09:58:57.351Z,13.18
2023-02-18T10:03:04.194Z,13.20
2023-02-18T10:07:06.790Z,13.50
2023-02-18T10:11:16.685Z,13.54
2023-02-18T10:15:23.062Z,13.43
2023-02-18T10:19:41.102Z,13.45
2023-02-18T10:23:53.570Z,13.51
2023-02-18T10:27:55.628Z,13.34
2023-02-18T10:32:06.946Z,13.62
2023-02-18T10:36:27.192Z,13.83
2023-02-18T10:41:10.619Z,13.81
2023-02-18T10:45:30.802Z,13.81
2023-02-18T10:50:01.924Z,13.88
2023-02-18T10:54:03.948Z,13.85
2023-02-18T10:58:24.424Z,13.93
2023-02-18T11:02:32.606Z,13.90
2023-02-18T11:06:42.129Z,13.95
2023-02-18T11:10:46.366Z,13.79
2023-02-18T11:14:51.561Z,13.73
2023-02-18T11:18:53.810Z,13.52
2023-02-18T11:23:15.153Z,13.49
2023-02-18T11:27:28.667Z,13.36
2023-02-18T11:31:42.290Z,13.37
2023-02-18T11:35:58.263Z,13.35
2023-02-18T11:39:59.990Z,13.31
2023-02-18T11:44:04.097Z,13.16
2023-02-18T11:48:19.918Z,13.34
2023-02-18T11:52:28.168Z,13.33
2023-02-18T11:56:35.837Z,13.34
2023-02-18T12:00:40.556Z,13.29
2023-02-18T12:04:47.432Z,13.40
2023-02-18T12:08:52.652Z,13.50
2023-02-18T12:13:13.315Z,13.58
2023-02-18T12:17:32.709Z,13.65
2023-02-18T12:22:12.558Z,13.83
2023-02-18T12:26:30.598Z,13.90
2023-02-18T12:30:49.532Z,13.85
2023-02-18T12:35:12.692Z,13.97
2023-02-18T12:39:20.194Z,13.82
2023-02-18T12:43:55.661Z,13.66
2023-02-18T12:48:21.128Z,13.58
2023-02-18T12:52:45.174Z,13.48
2023-02-18T12:56:52.917Z,13.47
2023-02-18T13:01:16.651Z,13.49
2023-02-18T13:05:38.383Z,13.50
2023-02-18T13:10:12.372Z,13.55
2023-02-18T13:14:20.640Z,13.59
2023-02-18T13:18:36.105Z,13.57
2023-02-18T13:22:38.326Z,13.60
2023-02-18T13:26:43.931Z,13.52
2023-02-18T13:30:53.176Z,13.56
2023-02-18T13:35:21.888Z,13.57
2023-02-18T13:39:25.416Z,13.58
2023-02-18T13:43:35.367Z,13.57
2023-02-18T13:47:43.371Z,13.54
2023-02-18T13:51:48.476Z,13.62
2023-02-18T13:56:20.863Z,13.63
2023-02-18T14:00:26.001Z,13.61
2023-02-18T14:04:39.766Z,13.64
2023-02-18T14:08:42.116Z,13.58
2023-02-18T14:12:51.846Z,13.40
2023-02-18T14:17:19.717Z,13.39
2023-02-18T14:21:34.900Z,13.37
2023-02-18T14:25:40.769Z,13.41
2023-02-18T14:29:43.152Z,13.53
2023-02-18T14:33:54.476Z,13.49
2023-02-18T14:38:45.886Z,13.50
2023-02-18T14:43:02.443Z,13.35
2023-02-18T14:47:23.899Z,13.31
2023-02-18T14:51:32.404Z,13.28
2023-02-18T14:55:40.592Z,13.13
2023-02-18T14:59:44.146Z,12.95
2023-02-18T15:03:46.382Z,12.82
2023-02-18T15:07:59.696Z,12.75
2023-02-18T15:12:09.678Z,12.71
2023-02-18T15:16:30.080Z,12.69
2023-02-18T15:20:34.493Z,12.72
2023-02-18T15:24:44.337Z,12.82
2023-02-18T15:29:06.170Z,12.89
2023-02-18T15:33:12.924Z,12.86
2023-02-18T15:37:15.380Z,12.92
2023-02-18T15:41:18.911Z,12.86
2023-02-18T15:45:29.889Z,12.88
2023-02-18T15:49:31.629Z,12.91
2023-02-18T15:53:37.326Z,12.89
2023-02-18T15:57:40.205Z,12.90
2023-02-18T16:01:41.724Z,12.84
2023-02-18T16:05:43.371Z,12.81
2023-02-18T16:09:45.013Z,12.82
2023-02-18T16:13:48.160Z,12.81
2023-02-18T16:17:49.961Z,12.82
2023-02-18T16:21:51.738Z,12.72
2023-02-18T16:25:53.297Z,12.67
2023-02-18T16:30:01.100Z,12.67
2023-02-18T16:34:02.749Z,12.61
2023-02-18T16:38:05.332Z,12.54
2023-02-18T16:42:11.497Z,12.49
2023-02-18T16:46:19.341Z,12.49
2023-02-18T16:50:22.431Z,12.43
2023-02-18T16:54:24.562Z,12.40
2023-02-18T16:58:26.248Z,12.40
2023-02-18T17:02:30.270Z,12.33
2023-02-18T17:06:32.662Z,12.35
2023-02-18T17:10:35.112Z,12.30
2023-02-18T17:14:37.572Z,12.26
2023-02-18T17:18:42.041Z,12.21
2023-02-18T17:22:43.697Z,12.22
2023-02-18T17:26:45.422Z,12.16
2023-02-18T17:30:53.833Z,12.12
2023-02-18T17:34:55.528Z,12.14
2023-02-18T17:38:58.466Z,12.09
2023-02-18T17:43:00.008Z,12.06
2023-02-18T17:47:01.522Z,12.11
2023-02-18T17:51:06.248Z,12.09
2023-02-18T17:55:20.538Z,12.07
2023-02-18T17:59:23.571Z,12.04
2023-02-18T18:03:25.274Z,12.02
2023-02-18T18:07:26.896Z,12.03
2023-02-18T18:11:28.853Z,12.00
2023-02-18T18:15:38.262Z,11.95
2023-02-18T18:19:40.496Z,11.92
2023-02-18T18:23:42.258Z,11.89
2023-02-18T18:27:44.112Z,11.83
2023-02-18T18:31:45.895Z,11.79
2023-02-18T18:35:50.108Z,11.75
2023-02-18T18:39:54.442Z,11.76
2023-02-18T18:43:56.115Z,11.70
2023-02-18T18:47:57.954Z,11.67
2023-02-18T18:51:59.818Z,11.63
2023-02-18T18:56:05.023Z,11.63
2023-02-18T19:00:07.496Z,11.62
2023-02-18T19:04:11.002Z,11.62
2023-02-18T19:08:13.760Z,11.60
2023-02-18T19:12:15.358Z,11.58
2023-02-18T19:16:20.012Z,11.60
2023-02-18T19:20:24.650Z,11.54
2023-02-18T19:24:26.252Z,11.51
2023-02-18T19:28:28.424Z,11.55
2023-02-18T19:32:30.019Z,11.52
2023-02-18T19:36:31.729Z,11.44
2023-02-18T19:40:33.402Z,11.47
2023-02-18T19:44:35.052Z,11.43
2023-02-18T19:48:36.653Z,11.46
2023-02-18T19:52:38.483Z,11.44
2023-02-18T19:56:40.086Z,11.46
2023-02-18T20:00:43.690Z,11.43
2023-02-18T20:04:45.855Z,11.41
2023-02-18T20:08:47.790Z,11.43
2023-02-18T20:12:53.671Z,11.39
2023-02-18T20:16:55.888Z,11.39
2023-02-18T20:20:57.516Z,11.35
2023-02-18T20:24:59.956Z,11.32
2023-02-18T20:29:01.567Z,11.29
2023-02-18T20:33:03.269Z,11.34
2023-02-18T20:37:04.911Z,11.28
2023-02-18T20:41:10.108Z,11.25
2023-02-18T20:45:11.899Z,11.24
2023-02-18T20:49:16.307Z,11.13
2023-02-18T20:53:17.844Z,11.22
2023-02-18T20:57:19.471Z,11.24
2023-02-18T21:01:21.108Z,11.25
2023-02-18T21:05:22.706Z,11.25
2023-02-18T21:09:25.031Z,11.23
2023-02-18T21:13:26.642Z,11.21
2023-02-18T21:17:28.202Z,11.25
2023-02-18T21:21:29.803Z,11.20
2023-02-18T21:25:32.356Z,11.20
2023-02-18T21:29:34.233Z,11.20
2023-02-18T21:33:36.169Z,11.18
2023-02-18T21:37:37.790Z,11.21
2023-02-18T21:41:41.216Z,11.16
2023-02-18T21:45:43.158Z,11.20
2023-02-18T21:49:44.708Z,11.22
2023-02-18T21:53:46.220Z,11.17
2023-02-18T21:57:47.833Z,11.17
2023-02-18T22:01:50.075Z,11.17
2023-02-18T22:05:51.768Z,11.18
2023-02-18T22:09:54.030Z,11.11
2023-02-18T22:13:55.641Z,11.15
2023-02-18T22:17:57.328Z,11.14
2023-02-18T22:21:59.075Z,11.14
2023-02-18T22:26:05.450Z,11.13
2023-02-18T22:30:07.518Z,11.11
2023-02-18T22:34:10.059Z,11.18
2023-02-18T22:38:11.703Z,11.10
2023-02-18T22:42:13.262Z,11.13
2023-02-18T22:46:19.027Z,11.10
2023-02-18T22:50:20.595Z,11.16
2023-02-18T22:54:22.450Z,11.23
2023-02-18T22:58:24.121Z,11.15
2023-02-18T23:02:25.749Z,11.15
2023-02-18T23:06:27.561Z,11.20
2023-02-18T23:10:29.187Z,11.18
2023-02-18T23:14:30.832Z,11.20
2023-02-18T23:18:34.706Z,11.20
2023-02-18T23:22:37.903Z,11.16
2023-02-18T23:26:39.594Z,11.11
2023-02-18T23:30:41.876Z,11.10
2023-02-18T23:34:43.645Z,11.10
2023-02-18T23:38:49.778Z,11.03
2023-02-18T23:42:54.540Z,11.03
2023-02-18T23:46:56.202Z,11.02
2023-02-18T23:50:59.248Z,11.00
2023-02-18T23:55:01.026Z,10.97
2023-02-18T23:59:04.200Z,10.96
